Time;durP1;ratioP1;P1;durP2;ratioP2;P2;SDS_P1;SDS_P2;PMS_P1;PMS_P2;Temp;Humidity;BMP_temperature;BMP_pressure;BME280_temperature;BME280_humidity;BME280_pressure;Samples;Min_cycle;Max_cycle;Signal;HPM_P1;HPM_P2
2022/02/13 00:00:39;;;;;;;8.73;2.08;;;;;;;7.50;90.67;99985.25;4938948;28;20043;-73
2022/02/13 00:03:04;;;;;;;7.20;1.75;;;;;;;7.46;90.68;99995.00;4968675;28;20543;-74
2022/02/13 00:05:30;;;;;;;8.23;1.77;;;;;;;7.47;90.92;99991.19;4991861;28;20030;-74
2022/02/13 00:07:55;;;;;;;13.18;2.63;;;;;;;7.45;91.57;99993.34;4974922;28;20134;-73
2022/02/13 00:10:21;;;;;;;6.75;2.30;;;;;;;7.42;91.63;99988.41;4974840;28;20023;-75
2022/02/13 00:12:46;;;;;;;6.15;2.63;;;;;;;7.41;91.42;99991.41;4980410;28;20077;-75
2022/02/13 00:15:12;;;;;;;14.75;1.98;;;;;;;7.42;92.14;99985.69;4941124;28;20030;-74
2022/02/13 00:17:37;;;;;;;14.35;2.38;;;;;;;7.41;92.26;99988.69;4960390;28;20104;-74
2022/02/13 00:20:05;;;;;;;15.98;1.67;;;;;;;7.39;91.74;99988.94;4939027;28;20077;-74
2022/02/13 00:22:30;;;;;;;9.18;1.58;;;;;;;7.39;92.74;99972.59;4970378;28;20054;-74
2022/02/13 00:24:56;;;;;;;16.40;3.42;;;;;;;7.30;93.26;99949.66;4969925;28;20061;-73
2022/02/13 00:27:22;;;;;;;12.20;2.17;;;;;;;7.38;93.33;99953.81;4968642;28;20046;-74
2022/02/13 00:29:47;;;;;;;14.90;1.92;;;;;;;7.40;92.86;99957.09;4968211;28;20026;-74
2022/02/13 00:32:13;;;;;;;16.40;2.67;;;;;;;7.40;92.39;99952.47;4946806;28;20037;-74
2022/02/13 00:34:38;;;;;;;13.65;2.38;;;;;;;7.40;92.97;99968.78;4978677;28;20023;-73
2022/02/13 00:37:06;;;;;;;11.40;2.10;;;;;;;7.42;93.30;99961.22;4965915;28;20400;-74
2022/02/13 00:39:32;;;;;;;8.70;1.55;;;;;;;7.45;92.95;99955.25;4984191;28;20039;-74
2022/02/13 00:42:15;;;;;;;13.60;2.25;;;;;;;7.49;93.44;99956.38;4968503;28;20045;-76
2022/02/13 00:45:05;;;;;;;;;;;;;;;;;;;;;
2022/02/13 00:47:31;;;;;;;16.92;2.15;;;;;;;7.48;92.93;99954.75;4966876;28;20034;-74
2022/02/13 00:50:04;;;;;;;14.02;2.10;;;;;;;7.48;93.03;99943.84;4974323;28;20105;-77
2022/02/13 00:52:32;;;;;;;12.95;2.03;;;;;;;7.49;92.80;99956.38;4955526;28;20018;-76
2022/02/13 00:54:58;;;;;;;10.27;2.10;;;;;;;7.55;93.24;99946.38;4967743;28;20048;-73
2022/02/13 00:57:27;;;;;;;6.68;2.13;;;;;;;7.57;93.26;99935.25;4953566;28;20035;-73
2022/02/13 00:59:52;;;;;;;6.55;1.70;;;;;;;7.59;93.58;99943.94;4948523;28;20027;-73
2022/02/13 01:02:17;;;;;;;13.35;2.25;;;;;;;7.61;93.41;99936.38;4963631;28;20512;-74
2022/02/13 01:04:46;;;;;;;13.93;2.65;;;;;;;7.60;93.34;99929.28;4974058;28;20472;-73
2022/02/13 01:07:12;;;;;;;9.15;2.42;;;;;;;7.60;93.36;99935.53;4964094;28;20041;-71
2022/02/13 01:09:40;;;;;;;11.60;2.17;;;;;;;7.57;93.50;99919.72;4963560;28;20027;-71
2022/02/13 01:12:06;;;;;;;26.15;2.78;;;;;;;7.65;94.11;99921.13;4983108;28;20035;-72
2022/02/13 01:14:31;;;;;;;17.52;2.83;;;;;;;7.73;93.43;99922.59;4988167;28;20053;-70
2022/02/13 01:16:57;;;;;;;19.65;3.63;;;;;;;7.70;93.22;99913.03;4978216;28;20065;-72
2022/02/13 01:19:29;;;;;;;10.82;2.30;;;;;;;7.71;93.78;99903.78;4957646;28;20031;-73
2022/02/13 01:21:54;;;;;;;14.13;2.83;;;;;;;7.72;93.83;99899.97;4961968;28;20049;-75
2022/02/13 01:24:20;;;;;;;16.17;2.75;;;;;;;7.72;93.34;99913.59;4941970;28;20031;-74
2022/02/13 01:26:48;;;;;;;35.25;3.33;;;;;;;7.66;94.05;99896.38;4980741;28;20050;-74
2022/02/13 01:29:21;;;;;;;22.00;3.78;;;;;;;7.67;93.61;99897.22;4988585;28;20106;-73
2022/02/13 01:31:49;;;;;;;27.02;4.18;;;;;;;7.72;93.52;99888.28;4966459;28;20488;-73
2022/02/13 01:34:18;;;;;;;21.63;2.72;;;;;;;7.76;93.87;99890.22;4981915;28;20038;-74
2022/02/13 01:36:47;;;;;;;28.75;3.67;;;;;;;7.74;94.25;99886.94;4987429;28;20034;-74
2022/02/13 01:39:13;;;;;;;28.60;4.18;;;;;;;7.76;94.01;99898.38;4976913;28;20031;-74
2022/02/13 01:41:39;;;;;;;14.10;2.60;;;;;;;7.78;93.80;99879.91;4967090;28;20110;-73
2022/02/13 01:44:05;;;;;;;20.13;3.38;;;;;;;7.76;93.55;99883.97;4983786;28;20057;-73
2022/02/13 01:46:30;;;;;;;17.38;2.60;;;;;;;7.76;93.90;99882.03;4967464;28;20030;-73
2022/02/13 01:48:56;;;;;;;29.40;3.05;;;;;;;7.71;93.84;99879.31;4974970;28;20026;-74
2022/02/13 01:51:24;;;;;;;17.38;2.65;;;;;;;7.76;94.13;99879.31;4977548;28;20026;-72
2022/02/13 01:53:50;;;;;;;21.85;3.72;;;;;;;7.78;94.53;99869.03;4975423;28;20050;-72
2022/02/13 01:56:16;;;;;;;16.35;3.05;;;;;;;7.78;94.33;99869.03;4985598;28;20582;-73
2022/02/13 01:58:42;;;;;;;9.68;2.20;;;;;;;7.83;93.68;99873.69;4988200;28;20049;-72
2022/02/13 02:01:09;;;;;;;18.13;3.38;;;;;;;7.83;93.78;99863.59;4969435;28;20033;-72
2022/02/13 02:03:36;;;;;;;10.80;3.33;;;;;;;7.82;93.72;99866.56;4964984;28;20019;-72
2022/02/13 02:06:01;;;;;;;13.65;3.13;;;;;;;7.84;93.47;99870.69;4988655;28;20496;-71
2022/02/13 02:08:27;;;;;;;17.88;2.90;;;;;;;7.81;94.27;99871.22;4973742;28;20043;-72
2022/02/13 02:10:52;;;;;;;25.67;3.50;;;;;;;7.83;93.87;99858.16;4981342;28;20038;-72
2022/02/13 02:13:18;;;;;;;19.35;2.85;;;;;;;7.81;93.28;99860.31;4980610;28;20038;-72
2022/02/13 02:15:43;;;;;;;14.38;2.72;;;;;;;7.75;93.62;99849.66;4984731;28;20030;-73
2022/02/13 02:18:09;;;;;;;16.55;3.42;;;;;;;7.83;94.46;99852.72;4953242;28;20038;-73
2022/02/13 02:20:35;;;;;;;11.15;2.22;;;;;;;7.90;93.76;99862.53;4962272;28;20477;-74
2022/02/13 02:23:00;;;;;;;10.43;1.92;;;;;;;7.92;93.54;99849.50;4969193;28;20038;-73
2022/02/13 02:25:26;;;;;;;15.95;2.58;;;;;;;7.92;93.09;99841.34;4986757;28;20035;-71
2022/02/13 02:27:51;;;;;;;16.05;3.08;;;;;;;7.97;93.54;99855.81;4989267;28;20443;-71
2022/02/13 02:30:17;;;;;;;6.70;2.83;;;;;;;7.97;93.18;99825.03;4959533;28;20038;-72
2022/02/13 02:32:42;;;;;;;3.33;1.90;;;;;;;8.05;93.50;99832.69;4959491;28;20019;-71
2022/02/13 02:35:08;;;;;;;19.27;3.15;;;;;;;8.08;93.16;99826.72;4957851;28;20030;-72
2022/02/13 02:37:33;;;;;;;21.00;2.92;;;;;;;8.06;92.87;99818.00;4966134;28;20046;-72
2022/02/13 02:39:59;;;;;;;8.77;1.83;;;;;;;8.12;93.00;99822.38;4958616;28;20023;-71
2022/02/13 02:42:24;;;;;;;9.07;2.67;;;;;;;8.15;93.05;99804.72;4968729;28;20504;-72
2022/02/13 02:44:53;;;;;;;20.92;4.15;;;;;;;8.15;92.46;99797.34;4992194;28;20023;-71
2022/02/13 02:47:19;;;;;;;12.80;3.17;;;;;;;8.18;92.38;99798.72;4969805;28;20045;-72
2022/02/13 02:49:44;;;;;;;10.65;2.00;;;;;;;8.20;92.32;99800.06;4969917;28;20034;-72
2022/02/13 02:52:10;;;;;;;6.43;1.77;;;;;;;8.21;92.38;99782.66;5015615;23;20511;-71
2022/02/13 02:54:35;;;;;;;10.15;2.28;;;;;;;8.15;92.03;99782.91;4981592;28;20036;-73
2022/02/13 02:57:00;;;;;;;16.88;2.88;;;;;;;8.12;91.72;99776.09;4964056;28;20038;-73
2022/02/13 02:59:26;;;;;;;8.93;2.10;;;;;;;8.12;92.54;99761.63;4979803;28;20460;-73
2022/02/13 03:01:51;;;;;;;7.63;1.92;;;;;;;8.17;92.28;99759.75;4975741;28;20412;-72
2022/02/13 03:04:17;;;;;;;11.68;2.92;;;;;;;8.18;92.02;99755.97;4971628;28;20026;-72
2022/02/13 03:06:43;;;;;;;17.75;2.00;;;;;;;8.18;92.26;99755.16;4960164;28;20027;-73
2022/02/13 03:09:09;;;;;;;15.63;2.08;;;;;;;8.09;92.40;99741.22;4992009;28;20534;-71
2022/02/13 03:11:36;;;;;;;11.50;1.63;;;;;;;8.07;92.49;99743.38;4985781;28;20038;-72
2022/02/13 03:14:01;;;;;;;17.90;2.70;;;;;;;8.04;92.17;99733.84;4989970;28;20030;-72
2022/02/13 03:16:27;;;;;;;14.95;2.88;;;;;;;7.97;92.29;99735.16;4980192;28;20497;-72
2022/02/13 03:18:53;;;;;;;9.95;2.45;;;;;;;7.98;92.27;99723.19;4972104;28;20065;-72
2022/02/13 03:21:18;;;;;;;8.02;1.73;;;;;;;7.95;92.04;99723.75;4971234;28;20578;-72
2022/02/13 03:23:44;;;;;;;15.63;2.67;;;;;;;7.92;92.17;99711.47;4992373;28;20022;-71
2022/02/13 03:26:09;;;;;;;15.48;2.03;;;;;;;7.91;92.76;99706.28;4971520;28;20030;-72
2022/02/13 03:28:34;;;;;;;17.80;2.75;;;;;;;7.84;92.08;99693.75;4985807;28;20497;-72
2022/02/13 03:31:00;;;;;;;20.80;2.28;;;;;;;7.84;92.10;99688.31;4984827;28;20369;-73
2022/02/13 03:33:26;;;;;;;5.93;2.13;;;;;;;7.76;92.41;99682.56;4973061;28;20022;-73
2022/02/13 03:35:51;;;;;;;6.28;1.50;;;;;;;7.79;92.67;99676.56;4990125;28;20066;-72
2022/02/13 03:38:18;;;;;;;12.07;1.88;;;;;;;7.85;92.79;99676.31;4994270;28;20410;-72
2022/02/13 03:40:43;;;;;;;14.02;2.08;;;;;;;7.83;92.87;99675.78;4970580;28;21711;-73
2022/02/13 03:43:09;;;;;;;8.32;2.15;;;;;;;7.81;92.76;99664.34;4990490;28;20046;-73
2022/02/13 03:45:34;;;;;;;12.73;1.75;;;;;;;7.77;92.58;99659.66;4962425;28;20041;-74
2022/02/13 03:48:00;;;;;;;18.23;2.67;;;;;;;7.78;93.01;99664.03;4985154;28;20481;-73
2022/02/13 03:50:27;;;;;;;15.38;2.00;;;;;;;7.75;92.82;99667.28;4965960;28;20034;-71
2022/02/13 03:52:53;;;;;;;7.38;1.90;;;;;;;7.73;92.38;99645.78;4988826;28;20049;-73
2022/02/13 03:55:18;;;;;;;9.70;1.95;;;;;;;7.80;92.51;99646.38;4977113;28;20087;-72
2022/02/13 03:57:44;;;;;;;8.93;1.80;;;;;;;7.80;92.26;99640.91;4986152;28;20092;-72
2022/02/13 04:00:12;;;;;;;32.83;1.90;;;;;;;7.78;92.55;99643.09;4965633;28;20034;-72
2022/02/13 04:02:38;;;;;;;16.20;1.75;;;;;;;7.79;92.73;99660.25;4982946;28;20015;-72
2022/02/13 04:05:05;;;;;;;11.73;2.72;;;;;;;7.75;92.29;99638.16;4988090;28;20629;-72
2022/02/13 04:07:30;;;;;;;14.82;1.45;;;;;;;7.81;92.22;99641.72;4992084;28;20033;-73
2022/02/13 04:09:56;;;;;;;9.27;1.70;;;;;;;7.77;92.46;99629.72;4993044;28;20484;-73
2022/02/13 04:12:24;;;;;;;11.68;2.03;;;;;;;7.80;92.31;99624.59;4996591;28;20113;-73
2022/02/13 04:14:53;;;;;;;12.45;1.88;;;;;;;7.80;92.26;99627.31;4963810;28;20109;-73
2022/02/13 04:17:19;;;;;;;10.35;2.63;;;;;;;7.76;91.98;99620.75;4979652;28;20034;-72
2022/02/13 04:19:45;;;;;;;15.43;2.40;;;;;;;7.77;91.82;99619.69;4988204;28;20030;-72
2022/02/13 04:22:11;;;;;;;19.92;2.47;;;;;;;7.77;91.50;99616.13;4966164;28;20481;-73
2022/02/13 04:24:36;;;;;;;13.70;1.70;;;;;;;7.81;92.12;99623.50;4969488;28;20038;-73
2022/02/13 04:27:02;;;;;;;21.65;2.58;;;;;;;7.77;91.74;99608.78;4990962;28;20524;-73
2022/02/13 04:29:28;;;;;;;10.05;2.30;;;;;;;7.71;91.25;99604.44;4979626;28;20114;-73
2022/02/13 04:31:53;;;;;;;14.23;1.80;;;;;;;7.68;91.87;99594.06;4969806;28;20050;-72
2022/02/13 04:34:19;;;;;;;9.93;2.05;;;;;;;7.70;91.52;99591.91;4989965;28;20038;-74
2022/02/13 04:36:44;;;;;;;8.23;1.48;;;;;;;7.75;90.90;99615.59;4986023;28;20027;-73
2022/02/13 04:39:10;;;;;;;10.50;1.73;;;;;;;7.73;91.20;99585.91;4976609;28;20069;-73
2022/02/13 04:41:35;;;;;;;12.32;1.75;;;;;;;7.74;91.45;99582.13;4945875;28;20117;-72
2022/02/13 04:44:01;;;;;;;6.35;1.55;;;;;;;7.72;90.79;99567.13;4985869;28;20038;-73
2022/02/13 04:46:26;;;;;;;14.32;1.70;;;;;;;7.77;90.22;99581.56;4963525;28;20084;-74
2022/02/13 04:48:52;;;;;;;7.78;1.35;;;;;;;7.81;90.24;99576.41;4980407;28;20025;-73
2022/02/13 04:51:17;;;;;;;12.98;2.35;;;;;;;7.80;90.18;99570.16;4988296;28;20077;-73
2022/02/13 04:53:43;;;;;;;13.68;1.65;;;;;;;7.78;90.47;99576.94;4972338;28;20031;-73
2022/02/13 04:56:14;;;;;;;3.33;0.80;;;;;;;7.78;90.07;99580.50;4986915;28;20038;-69
2022/02/13 04:58:41;;;;;;;9.25;1.52;;;;;;;7.80;90.25;99572.88;4993463;28;20509;-72
2022/02/13 05:01:07;;;;;;;3.47;1.00;;;;;;;7.78;89.67;99561.44;4969172;28;20041;-72
2022/02/13 05:03:32;;;;;;;8.95;1.60;;;;;;;7.80;89.87;99570.16;4969954;28;20026;-71
2022/02/13 05:05:58;;;;;;;9.57;1.20;;;;;;;7.75;89.69;99559.25;4969420;28;20386;-75
2022/02/13 05:08:23;;;;;;;6.80;1.08;;;;;;;7.76;89.79;99563.59;4989024;28;20030;-75
2022/02/13 05:10:49;;;;;;;9.88;2.03;;;;;;;7.71;88.95;99560.88;4982716;28;20015;-75
2022/02/13 05:13:14;;;;;;;3.83;1.17;;;;;;;7.72;89.39;99532.56;4991670;28;20068;-75
2022/02/13 05:15:40;;;;;;;14.10;1.55;;;;;;;7.72;88.98;99513.50;4989293;28;20086;-74
2022/02/13 05:18:06;;;;;;;5.30;1.02;;;;;;;7.71;88.91;99511.91;4989087;28;20499;-75
2022/02/13 05:20:31;;;;;;;11.25;1.63;;;;;;;7.75;89.00;99502.09;4991226;28;20027;-75
2022/02/13 05:22:57;;;;;;;10.95;1.15;;;;;;;7.74;88.68;99505.91;4981555;28;20038;-75
2022/02/13 05:25:24;;;;;;;2.38;0.98;;;;;;;7.83;89.24;99514.38;4996987;28;20030;-74
2022/02/13 05:27:50;;;;;;;8.75;1.45;;;;;;;7.81;88.58;99511.91;4971888;28;20033;-75
2022/02/13 05:30:15;;;;;;;6.97;0.90;;;;;;;7.82;88.50;99508.09;4981896;28;20041;-75
2022/02/13 05:32:41;;;;;;;3.75;1.45;;;;;;;7.83;88.86;99509.72;4977446;28;20796;-75
2022/02/13 05:35:07;;;;;;;6.85;1.00;;;;;;;7.82;88.34;99502.63;4974639;28;20038;-76
2022/02/13 05:37:33;;;;;;;8.27;1.38;;;;;;;7.80;88.10;99504.84;4987235;28;20034;-75
2022/02/13 05:39:59;;;;;;;6.57;1.08;;;;;;;7.74;88.00;99495.03;4989398;28;20038;-75
2022/02/13 05:42:26;;;;;;;6.75;2.05;;;;;;;7.72;88.56;99464.53;4977034;28;20492;-75
2022/02/13 05:44:52;;;;;;;8.05;1.08;;;;;;;7.72;87.92;99461.81;4985099;28;20100;-75
2022/02/13 05:47:21;;;;;;;6.85;1.30;;;;;;;7.70;88.66;99466.72;4970981;28;20042;-76
2022/02/13 05:49:47;;;;;;;5.05;1.15;;;;;;;7.68;88.39;99458.00;4988178;28;20018;-75
2022/02/13 05:52:12;;;;;;;7.40;1.17;;;;;;;7.66;87.97;99449.28;4986567;28;20054;-75
2022/02/13 05:54:38;;;;;;;13.77;1.58;;;;;;;7.70;88.14;99434.06;4989479;28;20037;-75
2022/02/13 05:57:04;;;;;;;13.52;1.48;;;;;;;7.71;87.71;99435.69;4982042;28;20453;-72
2022/02/13 05:59:29;;;;;;;9.15;0.90;;;;;;;7.74;87.52;99429.72;4984732;28;20048;-73
2022/02/13 06:01:55;;;;;;;6.25;1.13;;;;;;;7.75;88.20;99428.59;4987028;28;20050;-72
2022/02/13 06:04:22;;;;;;;9.02;1.33;;;;;;;7.72;87.37;99420.19;4980316;28;20033;-73
2022/02/13 06:06:55;;;;;;;8.18;1.27;;;;;;;7.68;88.20;99425.34;4978057;28;20031;-73
2022/02/13 06:09:22;;;;;;;3.65;0.98;;;;;;;7.70;87.71;99423.19;4984765;28;20457;-75
2022/02/13 06:11:48;;;;;;;3.65;1.00;;;;;;;7.68;87.87;99395.41;4989618;28;20473;-75
2022/02/13 06:14:13;;;;;;;17.85;1.35;;;;;;;7.63;87.49;99400.84;4988705;28;20027;-74
2022/02/13 06:16:39;;;;;;;6.57;1.23;;;;;;;7.67;86.90;99388.34;4971906;28;20083;-76
2022/02/13 06:19:05;;;;;;;3.08;0.57;;;;;;;7.64;87.42;99386.19;4984656;28;20039;-73
2022/02/13 06:21:31;;;;;;;2.92;1.02;;;;;;;7.71;87.75;99397.59;4991981;28;20509;-73
2022/02/13 06:23:57;;;;;;;7.43;1.42;;;;;;;7.71;87.14;99386.72;4973412;28;20098;-73
2022/02/13 06:26:23;;;;;;;10.60;1.42;;;;;;;7.67;87.24;99369.28;4992145;28;20038;-74
2022/02/13 06:28:49;;;;;;;10.77;1.23;;;;;;;7.65;86.82;99369.56;4974234;28;20496;-72
2022/02/13 06:31:15;;;;;;;8.93;0.93;;;;;;;7.66;87.44;99362.22;4983417;28;20046;-73
2022/02/13 06:33:40;;;;;;;8.27;1.40;;;;;;;7.63;87.28;99379.09;4965645;28;20028;-74
2022/02/13 06:36:07;;;;;;;12.88;1.77;;;;;;;7.58;87.08;99363.59;4967761;28;20034;-74
2022/02/13 06:38:33;;;;;;;8.73;1.10;;;;;;;7.53;87.02;99341.81;4984995;28;20026;-75
2022/02/13 06:40:58;;;;;;;16.67;1.80;;;;;;;7.53;86.93;99333.66;4991143;28;20030;-72
2022/02/13 06:43:24;;;;;;;5.68;1.13;;;;;;;7.50;86.63;99343.19;4990235;28;20085;-71
2022/02/13 06:45:49;;;;;;;10.63;1.92;;;;;;;7.56;87.58;99329.56;4985071;28;20026;-72
2022/02/13 06:48:15;;;;;;;5.28;1.27;;;;;;;7.59;87.00;99329.03;4966666;28;20414;-72
2022/02/13 06:50:40;;;;;;;11.75;1.35;;;;;;;7.65;86.89;99327.91;4970096;28;20038;-73
2022/02/13 06:53:06;;;;;;;10.68;1.40;;;;;;;7.62;86.50;99323.88;4964900;28;20042;-73
2022/02/13 06:55:32;;;;;;;13.48;2.97;;;;;;;7.62;86.51;99323.03;4994579;28;20150;-73
2022/02/13 06:57:58;;;;;;;7.53;1.95;;;;;;;7.61;86.50;99315.97;4985211;28;20111;-73
2022/02/13 07:00:23;;;;;;;7.93;1.48;;;;;;;7.56;86.53;99307.81;4972672;28;20035;-73
2022/02/13 07:02:49;;;;;;;11.95;1.75;;;;;;;7.56;87.24;99310.53;4993721;28;20021;-73
2022/02/13 07:05:15;;;;;;;7.68;1.42;;;;;;;7.50;85.98;99304.28;4990503;28;20528;-74
2022/02/13 07:07:42;;;;;;;11.95;1.95;;;;;;;7.48;86.06;99311.91;4972760;28;20034;-73
2022/02/13 07:10:10;;;;;;;4.75;1.42;;;;;;;7.46;86.02;99290.41;4957242;28;20380;-73
2022/02/13 07:12:36;;;;;;;5.65;1.95;;;;;;;7.48;86.87;99269.19;4983397;28;20035;-74
2022/02/13 07:15:01;;;;;;;11.88;1.88;;;;;;;7.48;86.13;99276.53;4978473;28;20610;-74
2022/02/13 07:17:27;;;;;;;10.27;2.33;;;;;;;7.46;85.28;99271.38;4971009;28;20034;-74
2022/02/13 07:19:53;;;;;;;5.65;1.30;;;;;;;7.45;85.30;99291.50;4992426;28;20061;-73
2022/02/13 07:22:18;;;;;;;4.00;1.60;;;;;;;7.46;84.84;99257.78;4983865;28;20065;-73
2022/02/13 07:24:44;;;;;;;8.85;1.85;;;;;;;7.48;84.88;99257.50;4981405;28;20091;-74
2022/02/13 07:27:09;;;;;;;4.45;1.40;;;;;;;7.46;84.48;99241.44;4995231;28;20026;-74
2022/02/13 07:29:36;;;;;;;6.65;2.13;;;;;;;7.49;83.25;99227.28;4984104;28;20025;-75
2022/02/13 07:32:03;;;;;;;13.80;1.85;;;;;;;7.47;83.60;99240.34;4992332;28;20073;-75
2022/02/13 07:34:29;;;;;;;12.70;1.98;;;;;;;7.41;83.51;99222.41;4982640;28;20018;-75
2022/02/13 07:37:01;;;;;;;15.30;2.10;;;;;;;7.42;82.78;99215.88;4965267;28;20076;-74
2022/02/13 07:39:30;;;;;;;6.95;1.73;;;;;;;7.38;82.65;99193.03;4970359;28;20034;-73
2022/02/13 07:41:56;;;;;;;4.38;1.48;;;;;;;7.50;83.01;99215.34;4992337;28;20029;-78
2022/02/13 07:44:25;;;;;;;5.15;1.70;;;;;;;7.48;82.30;99198.47;4984527;28;20396;-74
2022/02/13 07:46:51;;;;;;;4.75;1.40;;;;;;;7.51;82.70;99192.47;4975232;28;20957;-75
2022/02/13 07:49:17;;;;;;;3.53;1.30;;;;;;;7.58;82.49;99194.06;4980153;28;20041;-75
2022/02/13 07:51:43;;;;;;;3.40;1.58;;;;;;;7.63;82.27;99183.19;4986675;28;20042;-75
2022/02/13 07:54:09;;;;;;;9.70;1.55;;;;;;;7.66;81.59;99188.06;4967371;28;20125;-76
2022/02/13 07:56:34;;;;;;;12.52;2.53;;;;;;;7.64;82.14;99182.09;4991547;28;20545;-75
2022/02/13 07:59:00;;;;;;;8.95;1.20;;;;;;;7.64;81.88;99173.94;4986998;28;20038;-75
2022/02/13 08:01:26;;;;;;;9.38;2.83;;;;;;;7.65;81.14;99173.66;4984394;28;20507;-76
2022/02/13 08:03:51;;;;;;;16.02;1.98;;;;;;;7.67;81.13;99173.38;4983881;28;20031;-75
2022/02/13 08:06:18;;;;;;;11.90;2.25;;;;;;;7.64;81.18;99169.31;4984572;28;20037;-74
2022/02/13 08:08:53;;;;;;;9.38;2.15;;;;;;;7.66;80.85;99169.03;4979530;28;20413;-74
2022/02/13 08:11:19;;;;;;;13.05;2.70;;;;;;;7.70;81.47;99175.53;4982019;28;20092;-74
2022/02/13 08:13:45;;;;;;;7.78;1.90;;;;;;;7.71;81.19;99160.84;4986761;28;20038;-75
2022/02/13 08:16:11;;;;;;;12.65;2.22;;;;;;;7.70;80.84;99140.16;4965465;28;21565;-74
2022/02/13 08:18:39;;;;;;;9.32;2.30;;;;;;;7.68;81.25;99164.09;4959125;28;20056;-76
2022/02/13 08:21:09;;;;;;;18.20;3.05;;;;;;;7.66;80.15;99180.72;4988570;28;20042;-76
2022/02/13 08:23:35;;;;;;;8.85;3.05;;;;;;;7.65;80.60;99151.06;4985279;28;20476;-75
2022/02/13 08:26:02;;;;;;;20.27;3.42;;;;;;;7.70;80.61;99145.63;4989379;28;20445;-75
2022/02/13 08:28:31;;;;;;;7.75;2.15;;;;;;;7.64;80.39;99146.72;4984049;28;20341;-75
2022/02/13 08:30:57;;;;;;;8.50;1.90;;;;;;;7.66;81.08;99167.09;5001078;28;20037;-75
2022/02/13 08:33:23;;;;;;;11.02;2.33;;;;;;;7.71;80.39;99133.66;4989368;28;20022;-76
2022/02/13 08:35:48;;;;;;;11.63;3.15;;;;;;;7.77;80.56;99132.53;4989992;28;20377;-77
2022/02/13 08:38:14;;;;;;;9.65;2.45;;;;;;;7.78;80.65;99117.00;4987022;28;20038;-76
2022/02/13 08:40:40;;;;;;;10.65;1.95;;;;;;;7.82;80.78;99137.94;4972087;28;20380;-77
2022/02/13 08:43:06;;;;;;;18.08;3.22;;;;;;;7.80;80.66;99112.91;4971472;28;20026;-75
2022/02/13 08:45:33;;;;;;;9.15;2.17;;;;;;;7.82;80.19;99113.44;4971696;28;20125;-76
2022/02/13 08:47:59;;;;;;;11.63;3.55;;;;;;;7.77;80.25;99118.91;4971565;28;20041;-75
2022/02/13 08:50:25;;;;;;;3.05;2.25;;;;;;;7.88;80.60;99107.97;4986444;28;20031;-76
2022/02/13 08:52:54;;;;;;;11.93;2.83;;;;;;;7.91;80.58;99091.09;4972676;28;20107;-76
2022/02/13 08:55:22;;;;;;;6.25;2.60;;;;;;;8.01;80.13;99101.91;4968543;28;20109;-75
2022/02/13 08:57:49;;;;;;;8.80;2.30;;;;;;;8.03;80.74;99070.59;4982635;28;20113;-76
2022/02/13 09:00:16;;;;;;;14.77;2.45;;;;;;;8.05;79.88;99064.88;4987376;28;20109;-76
2022/02/13 09:02:42;;;;;;;12.15;2.53;;;;;;;8.04;79.92;99044.16;4978387;28;20021;-74
2022/02/13 09:05:09;;;;;;;5.22;2.20;;;;;;;8.07;80.70;99042.81;4993578;28;20528;-75
2022/02/13 09:07:36;;;;;;;8.00;2.40;;;;;;;8.08;80.57;99045.25;4966667;28;20481;-76
2022/02/13 09:10:03;;;;;;;10.55;2.42;;;;;;;8.09;80.65;99027.81;4992431;28;20022;-75
2022/02/13 09:12:29;;;;;;;5.97;2.28;;;;;;;8.11;80.07;99022.88;4982039;28;20050;-75
2022/02/13 09:14:55;;;;;;;4.65;2.10;;;;;;;8.11;79.94;99013.91;4982479;28;20026;-75
2022/02/13 09:17:21;;;;;;;7.68;2.33;;;;;;;8.15;79.86;99004.88;4980040;28;20432;-77
2022/02/13 09:19:48;;;;;;;11.07;3.08;;;;;;;8.13;80.04;98996.22;4992574;28;20024;-76
2022/02/13 09:22:13;;;;;;;8.30;2.30;;;;;;;8.17;80.81;99016.28;4988297;28;20081;-76
2022/02/13 09:24:39;;;;;;;7.55;2.00;;;;;;;8.19;80.19;99005.94;4971202;28;20023;-77
2022/02/13 09:27:07;;;;;;;6.38;2.35;;;;;;;8.17;80.46;99013.56;4979325;28;20061;-76
2022/02/13 09:29:32;;;;;;;9.52;3.03;;;;;;;8.15;80.48;98982.31;4978208;28;20026;-77
2022/02/13 09:31:58;;;;;;;12.35;2.65;;;;;;;8.19;80.78;98972.44;4977465;28;20357;-75
2022/02/13 09:34:28;;;;;;;14.68;3.90;;;;;;;8.21;80.15;98949.28;4991209;28;20034;-75
2022/02/13 09:36:55;;;;;;;10.40;3.28;;;;;;;8.21;80.28;98943.84;4995733;28;20558;-74
2022/02/13 09:42:10;;;;;;;12.48;3.63;;;;;;;8.20;80.15;98963.19;4988313;28;20153;-74
2022/02/13 09:44:36;;;;;;;11.57;3.13;;;;;;;8.10;80.44;98958.63;4990459;28;20080;-74
2022/02/13 09:47:01;;;;;;;17.75;3.38;;;;;;;8.15;80.12;98955.06;5004193;28;20121;-75
2022/02/13 09:49:27;;;;;;;23.67;4.55;;;;;;;8.15;80.61;98961.31;4992577;28;20037;-76
2022/02/13 09:51:53;;;;;;;18.02;3.90;;;;;;;8.18;80.89;98944.41;4983778;28;20533;-76
2022/02/13 09:54:24;;;;;;;8.48;3.13;;;;;;;8.13;80.30;98939.03;4970864;28;20536;-74
2022/02/13 09:57:59;;;;;;;14.15;4.20;;;;;;;8.11;80.00;98916.69;4964506;28;20083;-74
2022/02/13 09:59:52;;;;;;;24.40;3.88;;;;;;;8.02;81.11;98924.66;4980508;28;20385;-75
2022/02/13 10:02:40;;;;;;;9.55;2.72;;;;;;;7.98;81.86;98906.47;4960861;28;20389;-75
2022/02/13 10:05:08;;;;;;;17.67;4.30;;;;;;;7.94;82.08;98897.25;4983941;28;20701;-77
2022/02/13 10:07:36;;;;;;;17.85;4.05;;;;;;;7.80;83.38;98878.88;4966882;28;20046;-75
2022/02/13 10:10:05;;;;;;;15.88;3.92;;;;;;;7.72;84.40;98893.06;4971189;28;20109;-75
2022/02/13 10:12:39;;;;;;;37.03;4.65;;;;;;;7.64;85.22;98880.09;4966257;28;20027;-74
2022/02/13 10:15:29;;;;;;;11.70;3.38;;;;;;;7.55;85.94;98865.47;4970102;28;20034;-75
2022/02/13 10:18:05;;;;;;;16.92;3.85;;;;;;;7.47;86.87;98862.25;4970892;28;20031;-73
2022/02/13 10:20:59;;;;;;;16.65;3.63;;;;;;;7.49;87.03;98861.97;4967616;28;20054;-73
2022/02/13 10:23:27;;;;;;;17.35;4.15;;;;;;;7.47;87.58;98859.53;4964856;28;20053;-74
2022/02/13 10:25:54;;;;;;;11.43;2.97;;;;;;;7.41;88.11;98849.78;4966929;28;20027;-75
2022/02/13 10:28:20;;;;;;;20.15;3.90;;;;;;;7.43;87.98;98841.34;4933125;28;20045;-75
2022/02/13 10:30:47;;;;;;;20.75;3.30;;;;;;;7.42;88.04;98866.94;4932503;28;20101;-74
2022/02/13 10:33:18;;;;;;;24.73;3.50;;;;;;;7.42;88.08;98837.84;4956466;28;20046;-73
2022/02/13 10:36:03;;;;;;;13.57;4.05;;;;;;;7.43;88.02;98836.75;4960359;28;20019;-72
2022/02/13 10:38:38;;;;;;;14.13;3.33;;;;;;;7.38;89.57;98827.81;4963092;28;20058;-73
2022/02/13 10:41:11;;;;;;;15.77;3.45;;;;;;;7.38;88.68;98820.44;4964743;28;20046;-74
2022/02/13 10:44:04;;;;;;;15.88;3.15;;;;;;;7.40;89.31;98823.69;4969748;28;20035;-72
2022/02/13 10:46:40;;;;;;;10.93;3.15;;;;;;;7.31;89.83;98831.63;4981389;28;20019;-74
2022/02/13 10:49:06;;;;;;;;;;;;;;;7.33;90.63;98839.53;4972541;28;20042;-74
2022/02/13 10:51:32;;;;;;;12.20;3.78;;;;;;;7.31;90.43;98817.25;4974434;28;19933;-72
2022/02/13 10:53:59;;;;;;;20.63;3.42;;;;;;;7.23;90.53;98793.38;4986410;28;20753;-74
2022/02/13 10:56:25;;;;;;;14.30;2.65;;;;;;;7.31;90.94;98809.88;4966211;28;20042;-74
2022/02/13 10:58:55;;;;;;;15.20;3.45;;;;;;;7.32;90.04;98787.03;4986925;28;20030;-74
2022/02/13 11:01:27;;;;;;;7.55;2.45;;;;;;;7.36;90.45;98797.34;4961186;28;20553;-73
2022/02/13 11:04:02;;;;;;;17.80;3.33;;;;;;;7.36;91.70;98806.34;4982341;28;20027;-72
2022/02/13 11:06:30;;;;;;;6.70;2.63;;;;;;;7.32;90.90;98775.38;4968122;28;20546;-74
2022/02/13 11:09:46;;;;;;;7.85;3.15;;;;;;;7.36;91.76;98786.47;4994787;28;20030;-73
2022/02/13 11:12:54;;;;;;;4.80;2.55;;;;;;;7.33;91.56;98766.13;4972005;28;20035;-74
2022/02/13 11:16:10;;;;;;;;;;;;;;;;;;;;;
2022/02/13 11:18:42;;;;;;;3.50;2.53;;;;;;;7.28;92.49;98738.97;4964171;28;20034;-74
2022/02/13 11:21:08;;;;;;;11.90;3.22;;;;;;;7.31;92.14;98741.91;4964068;28;20046;-73
2022/02/13 11:23:52;;;;;;;4.28;2.88;;;;;;;7.32;92.80;98734.56;4986552;28;20033;-76
2022/02/13 11:26:34;;;;;;;11.25;4.03;;;;;;;7.37;92.81;98739.97;4987360;28;20061;-74
2022/02/13 11:32:02;;;;;;;6.20;3.20;;;;;;;7.36;93.02;98711.16;4986030;28;20042;-75
2022/02/13 11:34:27;;;;;;;8.57;2.97;;;;;;;7.43;93.56;98706.19;4992150;28;20384;-75
2022/02/13 11:37:14;;;;;;;4.00;2.60;;;;;;;7.47;93.19;98722.75;4992281;28;20751;-74
2022/02/13 11:39:48;;;;;;;6.88;2.65;;;;;;;7.45;93.57;98701.28;4986047;28;20026;-73
2022/02/13 11:42:19;;;;;;;14.43;2.70;;;;;;;7.54;93.78;98708.81;4993387;28;20025;-73
2022/02/13 11:44:45;;;;;;;2.30;1.50;;;;;;;7.54;93.48;98695.22;5005560;28;20022;-74
2022/02/13 11:47:35;;;;;;;4.80;2.58;;;;;;;7.54;94.00;98693.28;4994939;28;20026;-73